createdAt,value
2023-05-25T00:00:29.845Z,3.77
2023-05-25T00:01:04.878Z,2.90
2023-05-25T00:01:37.815Z,3.30
2023-05-25T00:02:10.267Z,3.20
2023-05-25T00:02:46.686Z,3.50
2023-05-25T00:03:20.519Z,3.60
2023-05-25T00:03:53.207Z,2.97
2023-05-25T00:04:30.731Z,3.13
2023-05-25T00:05:03.188Z,2.83
2023-05-25T00:05:35.580Z,3.10
2023-05-25T00:06:11.143Z,3.17
2023-05-25T00:06:47.760Z,3.47
2023-05-25T00:07:20.271Z,3.10
2023-05-25T00:07:52.618Z,3.40
2023-05-25T00:08:27.599Z,3.80
2023-05-25T00:08:59.975Z,3.13
2023-05-25T00:09:32.320Z,2.73
2023-05-25T00:10:08.108Z,3.50
2023-05-25T00:10:40.548Z,2.97
2023-05-25T00:11:12.957Z,3.50
2023-05-25T00:11:47.965Z,3.77
2023-05-25T00:12:20.418Z,2.90
2023-05-25T00:12:52.838Z,2.97
2023-05-25T00:13:28.139Z,3.80
2023-05-25T00:14:00.628Z,4.20
2023-05-25T00:14:33.040Z,4.03
2023-05-25T00:15:09.222Z,3.90
2023-05-25T00:15:42.545Z,3.47
2023-05-25T00:16:15.116Z,3.30
2023-05-25T00:16:51.858Z,3.57
2023-05-25T00:17:24.554Z,3.90
2023-05-25T00:17:57.229Z,3.13
2023-05-25T00:18:33.314Z,3.97
2023-05-25T00:19:06.314Z,4.70
2023-05-25T00:19:42.614Z,4.10
2023-05-25T00:20:18.374Z,3.97
2023-05-25T00:20:54.338Z,4.40
2023-05-25T00:21:27.696Z,3.53
2023-05-25T00:22:05.479Z,3.80
2023-05-25T00:22:38.347Z,4.10
2023-05-25T00:23:10.725Z,3.33
2023-05-25T00:23:46.403Z,4.00
2023-05-25T00:24:18.853Z,4.40
2023-05-25T00:24:51.271Z,4.43
2023-05-25T00:25:26.241Z,4.10
2023-05-25T00:25:58.664Z,3.67
2023-05-25T00:26:31.136Z,3.27
2023-05-25T00:27:07.246Z,3.70
2023-05-25T00:27:39.803Z,3.77
2023-05-25T00:28:12.540Z,4.10
2023-05-25T00:28:47.554Z,3.83
2023-05-25T00:29:19.978Z,3.43
2023-05-25T00:29:52.473Z,3.43
2023-05-25T00:30:27.465Z,3.80
2023-05-25T00:30:59.857Z,4.30
2023-05-25T00:31:33.720Z,3.87
2023-05-25T00:32:09.705Z,3.50
2023-05-25T00:32:42.648Z,3.97
2023-05-25T00:33:15.303Z,3.50
2023-05-25T00:33:50.714Z,3.90
2023-05-25T00:34:23.130Z,4.40
2023-05-25T00:34:56.000Z,3.90
2023-05-25T00:35:30.981Z,3.63
2023-05-25T00:36:03.697Z,3.73
2023-05-25T00:36:36.103Z,3.80
2023-05-25T00:37:14.205Z,4.57
2023-05-25T00:37:46.566Z,3.37
2023-05-25T00:38:19.158Z,3.80
2023-05-25T00:38:54.162Z,4.07
2023-05-25T00:39:26.565Z,3.77
2023-05-25T00:39:58.950Z,3.47
2023-05-25T00:40:34.930Z,3.43
2023-05-25T00:41:07.301Z,3.53
2023-05-25T00:41:42.002Z,3.50
2023-05-25T00:42:16.979Z,3.67
2023-05-25T00:42:52.269Z,3.23
2023-05-25T00:43:24.711Z,3.10
2023-05-25T00:43:59.742Z,3.60
2023-05-25T00:44:32.362Z,4.23
2023-05-25T00:45:05.911Z,3.80
2023-05-25T00:45:41.454Z,4.20
2023-05-25T00:46:15.065Z,4.10
2023-05-25T00:46:49.149Z,3.33
2023-05-25T00:47:24.224Z,4.60
2023-05-25T00:47:58.744Z,3.80
2023-05-25T00:48:31.146Z,4.00
2023-05-25T00:49:06.209Z,4.90
2023-05-25T00:49:39.571Z,4.90
2023-05-25T00:50:15.501Z,4.77
2023-05-25T00:50:50.536Z,3.27
2023-05-25T00:51:22.974Z,3.80
2023-05-25T00:51:55.825Z,3.17
2023-05-25T00:52:30.842Z,3.60
2023-05-25T00:53:06.520Z,3.20
2023-05-25T00:53:39.141Z,3.60
2023-05-25T00:54:11.602Z,3.77
2023-05-25T00:54:48.405Z,3.27
2023-05-25T00:55:22.093Z,4.00
2023-05-25T00:56:00.603Z,3.80
2023-05-25T00:56:37.805Z,3.60
2023-05-25T00:57:10.821Z,3.43
2023-05-25T00:57:46.229Z,3.43
2023-05-25T00:58:24.203Z,4.10
2023-05-25T00:58:59.318Z,3.47
2023-05-25T00:59:41.498Z,2.90
2023-05-25T01:00:15.013Z,3.30
2023-05-25T01:00:49.810Z,3.70
2023-05-25T01:01:26.938Z,3.90
2023-05-25T01:02:00.022Z,3.40
2023-05-25T01:02:33.803Z,3.90
2023-05-25T01:03:18.087Z,3.67
2023-05-25T01:03:54.145Z,3.77
2023-05-25T01:04:28.712Z,3.60
2023-05-25T01:05:04.456Z,3.80
2023-05-25T01:05:38.158Z,3.90
2023-05-25T01:06:16.228Z,3.50
2023-05-25T01:06:53.664Z,3.47
2023-05-25T01:07:27.334Z,4.00
2023-05-25T01:08:03.850Z,3.10
2023-05-25T01:08:39.070Z,3.30
2023-05-25T01:09:12.390Z,3.73
2023-05-25T01:09:45.534Z,3.40
2023-05-25T01:10:20.776Z,3.30
2023-05-25T01:10:53.868Z,3.07
2023-05-25T01:11:29.176Z,3.97
2023-05-25T01:12:06.184Z,2.90
2023-05-25T01:12:39.790Z,3.17
2023-05-25T01:13:13.868Z,3.40
2023-05-25T01:13:49.150Z,3.27
2023-05-25T01:14:21.862Z,3.07
2023-05-25T01:14:54.762Z,3.73
2023-05-25T01:15:30.054Z,2.80
2023-05-25T01:16:02.829Z,3.90
2023-05-25T01:16:36.232Z,3.40
2023-05-25T01:17:11.747Z,3.57
2023-05-25T01:17:44.679Z,3.80
2023-05-25T01:18:18.182Z,3.43
2023-05-25T01:18:54.003Z,3.80
2023-05-25T01:19:26.537Z,3.67
2023-05-25T01:20:09.575Z,3.40
2023-05-25T01:21:03.602Z,3.43
2023-05-25T01:21:38.217Z,3.87
2023-05-25T01:22:13.871Z,4.50
2023-05-25T01:22:51.969Z,3.60
2023-05-25T01:23:28.561Z,3.70
2023-05-25T01:24:04.817Z,3.67
2023-05-25T01:24:43.756Z,4.10
2023-05-25T01:25:22.069Z,3.17
2023-05-25T01:25:56.619Z,4.30
2023-05-25T01:26:37.076Z,3.37
2023-05-25T01:27:15.192Z,3.23
2023-05-25T01:27:49.410Z,3.80
2023-05-25T01:28:27.887Z,4.03
2023-05-25T01:29:02.347Z,3.73
2023-05-25T01:29:35.562Z,3.20
2023-05-25T01:30:14.325Z,3.40
2023-05-25T01:30:47.920Z,3.50
2023-05-25T01:31:22.845Z,3.13
2023-05-25T01:31:59.425Z,4.30
2023-05-25T01:32:32.691Z,3.67
2023-05-25T01:33:05.875Z,3.50
2023-05-25T01:33:41.632Z,3.30
2023-05-25T01:34:14.255Z,3.47
2023-05-25T01:34:51.124Z,3.53
2023-05-25T01:35:24.571Z,3.67
2023-05-25T01:36:00.597Z,3.60
2023-05-25T01:36:35.664Z,3.40
2023-05-25T01:37:13.683Z,3.50
2023-05-25T01:37:46.580Z,4.37
2023-05-25T01:38:18.940Z,3.77
2023-05-25T01:38:54.185Z,3.23
2023-05-25T01:39:26.657Z,3.70
2023-05-25T01:39:59.032Z,3.50
2023-05-25T01:40:33.993Z,4.13
2023-05-25T01:41:07.026Z,4.10
2023-05-25T01:41:39.383Z,3.77
2023-05-25T01:42:14.977Z,4.17
2023-05-25T01:42:47.324Z,3.47
2023-05-25T01:43:20.049Z,4.17
2023-05-25T01:43:55.766Z,4.00
2023-05-25T01:44:28.912Z,3.30
2023-05-25T01:45:01.442Z,4.17
2023-05-25T01:45:36.584Z,4.20
2023-05-25T01:46:13.564Z,3.33
2023-05-25T01:46:46.329Z,3.93
2023-05-25T01:47:25.371Z,4.00
2023-05-25T01:48:06.977Z,4.00
2023-05-25T01:48:45.810Z,3.30
2023-05-25T01:49:26.642Z,4.43
2023-05-25T01:50:06.506Z,4.33
2023-05-25T01:50:46.532Z,3.67
2023-05-25T01:51:26.918Z,3.67
2023-05-25T01:52:07.478Z,3.67
2023-05-25T01:52:45.294Z,3.80
2023-05-25T01:53:21.165Z,3.53
2023-05-25T01:53:56.702Z,3.20
2023-05-25T01:54:35.871Z,3.57
2023-05-25T01:55:11.605Z,3.90
2023-05-25T01:55:51.183Z,3.60
2023-05-25T01:56:24.610Z,3.37
2023-05-25T01:57:01.525Z,4.10
2023-05-25T01:57:38.166Z,3.07
2023-05-25T01:58:10.853Z,3.70
2023-05-25T01:58:44.997Z,3.90
2023-05-25T01:59:22.957Z,3.37
2023-05-25T02:00:00.413Z,3.40
2023-05-25T02:00:33.334Z,3.90
2023-05-25T02:01:09.797Z,3.83
2023-05-25T02:01:43.169Z,3.80
2023-05-25T02:02:16.703Z,4.10
2023-05-25T02:02:53.901Z,4.30
2023-05-25T02:03:26.536Z,4.40
2023-05-25T02:03:59.388Z,3.73
2023-05-25T02:04:34.571Z,3.47
2023-05-25T02:05:08.008Z,3.40
2023-05-25T02:05:42.399Z,3.53
2023-05-25T02:06:18.890Z,3.87
2023-05-25T02:06:54.756Z,3.90
2023-05-25T02:07:27.138Z,4.33
2023-05-25T02:08:02.857Z,3.30
2023-05-25T02:08:37.616Z,4.27
2023-05-25T02:09:09.986Z,4.20
2023-05-25T02:09:44.945Z,4.17
2023-05-25T02:10:17.430Z,3.73
2023-05-25T02:10:50.061Z,4.13
2023-05-25T02:11:22.412Z,3.93
2023-05-25T02:11:57.680Z,3.70
2023-05-25T02:12:30.068Z,3.93
2023-05-25T02:13:05.172Z,3.60
2023-05-25T02:13:37.551Z,4.20
2023-05-25T02:14:11.261Z,4.20
2023-05-25T02:14:43.687Z,3.30
2023-05-25T02:15:18.952Z,4.10
2023-05-25T02:15:53.080Z,3.57
2023-05-25T02:16:27.720Z,4.50
2023-05-25T02:17:03.987Z,4.17
2023-05-25T02:17:37.521Z,4.23
2023-05-25T02:18:11.284Z,4.50
2023-05-25T02:18:47.069Z,4.30
2023-05-25T02:19:19.482Z,4.00
2023-05-25T02:19:53.343Z,3.90
2023-05-25T02:20:28.671Z,3.80
2023-05-25T02:21:01.184Z,4.40
2023-05-25T02:21:33.589Z,3.77
2023-05-25T02:22:11.145Z,3.83
2023-05-25T02:22:43.501Z,4.67
2023-05-25T02:23:18.833Z,3.93
2023-05-25T02:23:51.279Z,4.63
2023-05-25T02:24:27.767Z,3.93
2023-05-25T02:25:00.191Z,4.03
2023-05-25T02:25:34.297Z,3.73
2023-05-25T02:26:09.247Z,3.83
2023-05-25T02:26:41.701Z,4.30
2023-05-25T02:27:14.599Z,4.20
2023-05-25T02:27:49.865Z,4.33
2023-05-25T02:28:22.346Z,3.53
2023-05-25T02:28:54.729Z,3.80
2023-05-25T02:29:29.712Z,4.27
2023-05-25T02:30:02.116Z,3.63
2023-05-25T02:30:35.274Z,3.83
2023-05-25T02:31:10.311Z,4.17
2023-05-25T02:31:42.803Z,3.60
2023-05-25T02:32:15.204Z,4.50
2023-05-25T02:32:50.547Z,3.73
2023-05-25T02:33:24.433Z,4.30
2023-05-25T02:33:57.046Z,3.90
2023-05-25T02:34:33.294Z,4.60
2023-05-25T02:35:06.707Z,4.10
2023-05-25T02:35:39.272Z,4.17
2023-05-25T02:36:14.708Z,3.90
2023-05-25T02:36:47.472Z,3.47
2023-05-25T02:37:25.022Z,4.47
2023-05-25T02:37:57.509Z,4.80
2023-05-25T02:38:29.868Z,3.63
2023-05-25T02:39:05.238Z,4.03
2023-05-25T02:39:37.644Z,4.00
2023-05-25T02:40:11.827Z,4.93
2023-05-25T02:40:48.327Z,3.97
2023-05-25T02:41:21.074Z,4.43
2023-05-25T02:41:53.473Z,4.10
2023-05-25T02:42:28.490Z,4.10
2023-05-25T02:43:01.249Z,3.93
2023-05-25T02:43:34.010Z,4.20
2023-05-25T02:44:06.657Z,4.10
2023-05-25T02:44:41.786Z,4.00
2023-05-25T02:45:14.366Z,4.20
2023-05-25T02:45:46.826Z,4.50
2023-05-25T02:46:23.096Z,4.87
2023-05-25T02:46:55.511Z,3.83
2023-05-25T02:47:28.842Z,4.20
2023-05-25T02:48:01.412Z,3.90
2023-05-25T02:48:37.112Z,4.63
2023-05-25T02:49:09.760Z,4.60
2023-05-25T02:49:42.730Z,4.27
2023-05-25T02:50:17.732Z,4.73
2023-05-25T02:50:52.941Z,3.67
2023-05-25T02:51:25.775Z,3.90
2023-05-25T02:52:01.653Z,3.90
2023-05-25T02:52:36.723Z,4.33
2023-05-25T02:53:09.201Z,4.20
2023-05-25T02:53:44.781Z,4.17
2023-05-25T02:54:17.536Z,3.77
2023-05-25T02:54:51.217Z,4.47
2023-05-25T02:55:35.314Z,4.30
2023-05-25T02:56:10.505Z,3.57
2023-05-25T02:56:43.208Z,4.10
2023-05-25T02:57:19.152Z,4.40
2023-05-25T02:57:52.078Z,4.17
2023-05-25T02:58:42.980Z,4.27
2023-05-25T02:59:21.925Z,4.43
2023-05-25T02:59:54.343Z,4.87
2023-05-25T03:00:29.537Z,4.07
2023-05-25T03:01:02.850Z,3.47
2023-05-25T03:01:40.939Z,3.90
2023-05-25T03:02:13.416Z,4.10
2023-05-25T03:02:47.092Z,4.43
2023-05-25T03:03:22.157Z,4.40
2023-05-25T03:03:57.168Z,4.07
2023-05-25T03:04:34.297Z,4.00
2023-05-25T03:05:08.888Z,5.00
2023-05-25T03:05:44.985Z,4.03
2023-05-25T03:06:17.422Z,3.90
2023-05-25T03:06:51.115Z,4.00
2023-05-25T03:07:28.246Z,4.10
2023-05-25T03:08:03.761Z,4.03
2023-05-25T03:08:36.755Z,4.23
2023-05-25T03:09:11.811Z,4.73
2023-05-25T03:09:45.801Z,3.97
2023-05-25T03:10:18.291Z,4.70
2023-05-25T03:10:50.694Z,4.23
2023-05-25T03:11:27.103Z,4.37
2023-05-25T03:12:02.685Z,3.97
2023-05-25T03:12:35.262Z,4.30
2023-05-25T03:13:11.156Z,4.03
2023-05-25T03:13:43.635Z,4.17
2023-05-25T03:14:17.011Z,3.97
2023-05-25T03:14:58.618Z,4.40
2023-05-25T03:15:31.676Z,5.00
2023-05-25T03:16:04.144Z,5.00
2023-05-25T03:16:39.321Z,4.80
2023-05-25T03:17:12.083Z,4.50
2023-05-25T03:17:44.604Z,3.57
2023-05-25T03:18:20.282Z,4.40
2023-05-25T03:18:53.106Z,4.53
2023-05-25T03:19:26.034Z,4.77
2023-05-25T03:20:01.063Z,3.90
2023-05-25T03:20:34.789Z,4.10
2023-05-25T03:21:07.617Z,4.60
2023-05-25T03:21:40.183Z,4.70
2023-05-25T03:22:15.435Z,4.03
2023-05-25T03:22:47.870Z,5.20
2023-05-25T03:23:22.901Z,4.30
2023-05-25T03:24:00.354Z,4.23
2023-05-25T03:24:32.801Z,4.10
2023-05-25T03:25:08.576Z,4.80
2023-05-25T03:25:44.317Z,4.63
2023-05-25T03:26:17.795Z,3.97
2023-05-25T03:26:52.075Z,4.47
2023-05-25T03:27:27.073Z,4.60
2023-05-25T03:28:00.031Z,4.33
2023-05-25T03:28:32.464Z,4.03
2023-05-25T03:29:08.949Z,3.93
2023-05-25T03:29:41.351Z,4.57
2023-05-25T03:30:15.090Z,4.50
2023-05-25T03:30:50.908Z,4.00
2023-05-25T03:31:24.154Z,4.47
2023-05-25T03:31:56.709Z,4.13
2023-05-25T03:32:35.289Z,4.20
2023-05-25T03:33:07.942Z,4.73
2023-05-25T03:33:46.867Z,5.67
2023-05-25T03:34:19.427Z,5.60
2023-05-25T03:34:54.381Z,4.87
2023-05-25T03:35:26.825Z,5.17
2023-05-25T03:35:59.511Z,5.03
2023-05-25T03:36:35.414Z,5.27
2023-05-25T03:37:08.036Z,4.73
2023-05-25T03:37:41.863Z,5.10
2023-05-25T03:38:17.970Z,5.03
2023-05-25T03:38:53.561Z,4.33
2023-05-25T03:39:26.398Z,4.90
2023-05-25T03:40:02.503Z,4.60
2023-05-25T03:40:37.432Z,5.13
2023-05-25T03:41:10.056Z,3.87
2023-05-25T03:41:45.744Z,5.10
2023-05-25T03:42:18.918Z,4.93
2023-05-25T03:42:51.299Z,5.30
2023-05-25T03:43:26.308Z,3.97
2023-05-25T03:44:00.019Z,4.30
2023-05-25T03:44:32.565Z,4.40
2023-05-25T03:45:09.336Z,4.50
2023-05-25T03:45:42.943Z,4.70
2023-05-25T03:46:18.661Z,4.90
2023-05-25T03:46:51.150Z,5.03
2023-05-25T03:47:23.546Z,5.00
2023-05-25T03:47:58.948Z,4.83
2023-05-25T03:48:31.902Z,4.57
2023-05-25T03:49:04.705Z,4.73
2023-05-25T03:49:39.689Z,4.73
2023-05-25T03:50:12.588Z,4.30
2023-05-25T03:50:44.978Z,5.23
2023-05-25T03:51:17.332Z,4.07
2023-05-25T03:51:53.532Z,4.30
2023-05-25T03:52:26.105Z,4.27
2023-05-25T03:52:58.481Z,5.03
2023-05-25T03:53:33.638Z,4.73
2023-05-25T03:54:08.700Z,4.00
2023-05-25T03:54:41.067Z,4.70
2023-05-25T03:55:17.816Z,4.57
2023-05-25T03:55:52.526Z,4.77
2023-05-25T03:56:25.049Z,4.90
2023-05-25T03:57:00.010Z,4.83
2023-05-25T03:57:32.391Z,4.60
2023-05-25T03:58:10.200Z,4.97
2023-05-25T03:58:42.559Z,4.23
2023-05-25T03:59:15.030Z,4.80
2023-05-25T03:59:50.032Z,4.00
2023-05-25T04:00:22.395Z,4.30
2023-05-25T04:00:56.420Z,5.13
2023-05-25T04:01:31.407Z,4.43
2023-05-25T04:02:03.795Z,4.80
2023-05-25T04:02:36.765Z,4.60
2023-05-25T04:03:11.981Z,12.53
2023-05-25T04:03:44.603Z,4.60
2023-05-25T04:04:17.165Z,4.67
2023-05-25T04:04:53.842Z,4.70
2023-05-25T04:05:27.027Z,4.83
2023-05-25T04:06:00.752Z,5.00
2023-05-25T04:06:37.510Z,4.83
2023-05-25T04:07:11.092Z,4.47
2023-05-25T04:07:43.463Z,5.57
2023-05-25T04:08:19.828Z,5.43
2023-05-25T04:08:52.271Z,4.70
2023-05-25T04:09:27.289Z,4.70
2023-05-25T04:10:02.276Z,5.13
2023-05-25T04:10:34.646Z,5.43
2023-05-25T04:11:07.061Z,4.73
2023-05-25T04:11:42.044Z,5.20
2023-05-25T04:12:14.446Z,5.00
2023-05-25T04:12:46.869Z,4.90
2023-05-25T04:13:21.919Z,4.27
2023-05-25T04:13:54.355Z,4.77
2023-05-25T04:14:30.994Z,5.20
2023-05-25T04:15:04.185Z,4.60
2023-05-25T04:15:37.311Z,5.10
2023-05-25T04:16:17.119Z,4.60
2023-05-25T04:16:49.852Z,4.30
2023-05-25T04:17:25.329Z,5.30
2023-05-25T04:18:03.243Z,4.50
2023-05-25T04:18:35.823Z,4.80
2023-05-25T04:19:08.273Z,4.13
2023-05-25T04:19:43.328Z,4.50
2023-05-25T04:20:16.025Z,5.00
2023-05-25T04:20:48.603Z,4.67
2023-05-25T04:21:24.970Z,4.70
2023-05-25T04:21:57.350Z,4.73
2023-05-25T04:22:29.778Z,4.70
2023-05-25T04:23:04.799Z,4.30
2023-05-25T04:23:37.881Z,4.90
2023-05-25T04:24:15.130Z,4.43
2023-05-25T04:24:50.931Z,4.83
2023-05-25T04:25:28.620Z,5.10
2023-05-25T04:26:02.454Z,4.87
2023-05-25T04:26:34.919Z,4.60
2023-05-25T04:27:11.734Z,4.80
2023-05-25T04:27:46.866Z,5.70
2023-05-25T04:28:21.486Z,5.00
2023-05-25T04:29:19.740Z,5.27
2023-05-25T04:30:13.907Z,4.80
2023-05-25T04:31:01.182Z,5.13
2023-05-25T04:31:39.488Z,5.00
2023-05-25T04:32:33.026Z,4.80
2023-05-25T04:33:24.876Z,5.20
2023-05-25T04:34:11.046Z,4.70
2023-05-25T04:34:48.576Z,5.67
2023-05-25T04:35:32.231Z,4.73
2023-05-25T04:36:04.908Z,5.00
2023-05-25T04:36:39.159Z,5.00
2023-05-25T04:37:16.187Z,4.80
2023-05-25T04:37:48.693Z,4.77
2023-05-25T04:38:21.228Z,4.87
2023-05-25T04:38:56.201Z,4.80
2023-05-25T04:39:30.348Z,5.50
2023-05-25T04:40:12.394Z,4.70
2023-05-25T04:40:48.133Z,4.70
2023-05-25T04:41:20.650Z,4.80
2023-05-25T04:41:59.474Z,4.60
2023-05-25T04:42:32.502Z,5.17
2023-05-25T04:43:05.378Z,4.73
2023-05-25T04:43:40.329Z,5.17
2023-05-25T04:44:21.594Z,4.50
2023-05-25T04:44:56.907Z,5.23
2023-05-25T04:45:30.795Z,5.37
2023-05-25T04:46:08.109Z,5.30
2023-05-25T04:46:40.966Z,4.87
2023-05-25T04:47:21.942Z,5.27
2023-05-25T04:47:54.649Z,5.07
2023-05-25T04:48:28.680Z,5.67
2023-05-25T04:49:04.535Z,5.27
2023-05-25T04:49:37.075Z,5.00
2023-05-25T04:50:14.476Z,5.53
2023-05-25T04:50:46.888Z,5.47
2023-05-25T04:51:19.250Z,5.50
2023-05-25T04:51:54.501Z,5.83
2023-05-25T04:52:26.880Z,5.23
2023-05-25T04:52:59.889Z,5.20
2023-05-25T04:53:35.499Z,4.70
2023-05-25T04:54:09.126Z,5.37
2023-05-25T04:54:42.103Z,4.90
2023-05-25T04:55:20.061Z,4.83
2023-05-25T04:55:55.721Z,5.00
2023-05-25T04:56:29.913Z,5.50
2023-05-25T04:57:06.541Z,5.87
2023-05-25T04:57:38.933Z,5.73
2023-05-25T04:58:13.495Z,5.40
2023-05-25T04:58:49.596Z,5.37
2023-05-25T04:59:22.054Z,5.30
2023-05-25T04:59:54.408Z,5.30
2023-05-25T05:00:29.547Z,4.80
2023-05-25T05:01:02.034Z,5.57
2023-05-25T05:01:41.046Z,5.33
2023-05-25T05:02:19.799Z,5.90
2023-05-25T05:02:54.236Z,5.00
2023-05-25T05:03:29.622Z,5.23
2023-05-25T05:04:02.097Z,4.90
2023-05-25T05:04:37.449Z,5.60
2023-05-25T05:05:11.704Z,5.03
2023-05-25T05:05:47.900Z,5.80
2023-05-25T05:06:26.096Z,5.30
2023-05-25T05:07:00.063Z,5.10
2023-05-25T05:07:38.355Z,5.40
2023-05-25T05:08:10.831Z,5.77
2023-05-25T05:08:43.484Z,5.83
2023-05-25T05:09:18.502Z,5.03
2023-05-25T05:09:51.672Z,4.70
2023-05-25T05:10:29.332Z,5.53
2023-05-25T05:11:03.527Z,6.00
2023-05-25T05:11:38.521Z,5.57
2023-05-25T05:12:12.221Z,6.20
2023-05-25T05:12:53.009Z,5.47
2023-05-25T05:13:25.391Z,4.90
2023-05-25T05:13:59.418Z,4.50
2023-05-25T05:14:34.521Z,5.63
2023-05-25T05:15:08.745Z,5.57
2023-05-25T05:15:44.205Z,5.73
2023-05-25T05:16:17.038Z,5.23
2023-05-25T05:16:49.462Z,4.90
2023-05-25T05:17:25.065Z,5.67
2023-05-25T05:17:57.756Z,5.23
2023-05-25T05:18:30.369Z,4.70
2023-05-25T05:19:05.496Z,4.90
2023-05-25T05:19:37.968Z,4.90
2023-05-25T05:20:16.033Z,5.73
2023-05-25T05:20:48.535Z,5.13
2023-05-25T05:21:23.490Z,5.07
2023-05-25T05:21:58.664Z,5.53
2023-05-25T05:22:33.623Z,4.80
2023-05-25T05:23:06.935Z,5.23
2023-05-25T05:23:42.286Z,5.80
2023-05-25T05:24:14.664Z,5.90
2023-05-25T05:24:47.085Z,5.10
2023-05-25T05:25:31.580Z,5.37
2023-05-25T05:26:05.268Z,5.40
2023-05-25T05:26:55.456Z,5.27
2023-05-25T05:27:34.793Z,5.53
2023-05-25T05:28:12.786Z,6.00
2023-05-25T05:28:49.051Z,5.30
2023-05-25T05:29:22.638Z,5.40
2023-05-25T05:29:55.078Z,5.43
2023-05-25T05:30:30.712Z,5.37
2023-05-25T05:31:03.104Z,5.70
2023-05-25T05:31:36.965Z,5.00
2023-05-25T05:32:13.048Z,5.77
2023-05-25T05:32:46.672Z,5.30
2023-05-25T05:33:24.097Z,5.30
2023-05-25T05:33:56.610Z,5.27
2023-05-25T05:34:31.767Z,5.03
2023-05-25T05:35:09.099Z,5.27
2023-05-25T05:35:50.420Z,5.40
2023-05-25T05:36:29.965Z,5.10
2023-05-25T05:37:05.484Z,5.20
2023-05-25T05:37:38.000Z,4.90
2023-05-25T05:38:11.125Z,4.90
2023-05-25T05:38:47.021Z,5.70
2023-05-25T05:39:19.451Z,4.70
2023-05-25T05:39:52.855Z,4.60
2023-05-25T05:40:27.915Z,4.63
2023-05-25T05:41:03.308Z,5.80
2023-05-25T05:41:35.947Z,4.80
2023-05-25T05:42:11.190Z,5.17
2023-05-25T05:42:44.568Z,5.20
2023-05-25T05:43:17.037Z,5.30
2023-05-25T05:43:52.018Z,4.90
2023-05-25T05:44:27.913Z,5.37
2023-05-25T05:45:02.029Z,5.37
2023-05-25T05:45:37.027Z,5.50
2023-05-25T05:46:09.956Z,5.30
2023-05-25T05:46:42.927Z,5.17
2023-05-25T05:47:18.038Z,5.37
2023-05-25T05:47:50.481Z,5.50
2023-05-25T05:48:23.119Z,6.00
2023-05-25T05:48:58.080Z,4.83
2023-05-25T05:49:31.200Z,5.37
2023-05-25T05:50:06.063Z,5.00
2023-05-25T05:50:43.417Z,5.10
2023-05-25T05:51:17.189Z,4.93
2023-05-25T05:51:52.330Z,4.80
2023-05-25T05:52:24.681Z,5.40
2023-05-25T05:52:57.062Z,5.30
2023-05-25T05:53:32.641Z,5.43
2023-05-25T05:54:05.814Z,4.50
2023-05-25T05:54:40.914Z,5.20
2023-05-25T05:55:17.399Z,5.30
2023-05-25T05:55:56.246Z,4.73
2023-05-25T05:56:32.229Z,4.87
2023-05-25T05:57:04.879Z,5.63
2023-05-25T05:57:39.832Z,5.00
2023-05-25T05:58:12.296Z,4.73
2023-05-25T05:58:44.732Z,5.50
2023-05-25T05:59:19.691Z,4.57
2023-05-25T05:59:52.957Z,4.93
2023-05-25T06:00:25.618Z,4.97
2023-05-25T06:01:01.643Z,5.17
2023-05-25T06:01:34.277Z,4.83
2023-05-25T06:02:10.368Z,5.07
2023-05-25T06:02:43.073Z,5.00
2023-05-25T06:03:18.396Z,5.87
2023-05-25T06:03:54.573Z,5.83
2023-05-25T06:04:29.272Z,5.37
2023-05-25T06:05:05.517Z,5.37
2023-05-25T06:05:38.011Z,5.53
2023-05-25T06:06:13.203Z,5.07
2023-05-25T06:06:45.908Z,4.57
2023-05-25T06:07:18.319Z,4.77
2023-05-25T06:07:53.399Z,4.70
2023-05-25T06:08:27.838Z,4.93
2023-05-25T06:09:01.159Z,5.20
2023-05-25T06:09:36.497Z,5.70
2023-05-25T06:10:10.198Z,5.93
2023-05-25T06:10:42.768Z,5.60
2023-05-25T06:11:17.778Z,5.43
2023-05-25T06:11:53.047Z,5.87
2023-05-25T06:12:25.442Z,5.10
2023-05-25T06:13:00.454Z,5.33
2023-05-25T06:13:32.920Z,5.13
2023-05-25T06:14:05.759Z,5.60
2023-05-25T06:14:40.829Z,5.07
2023-05-25T06:15:13.241Z,4.90
2023-05-25T06:15:48.884Z,5.00
2023-05-25T06:16:27.084Z,6.17
2023-05-25T06:16:59.750Z,4.90
2023-05-25T06:17:36.035Z,6.30
2023-05-25T06:18:08.850Z,5.80
2023-05-25T06:18:41.533Z,4.53
2023-05-25T06:19:18.213Z,5.30
2023-05-25T06:19:50.816Z,4.97
2023-05-25T06:20:26.678Z,5.23
2023-05-25T06:20:59.087Z,6.13
2023-05-25T06:21:31.508Z,5.70
2023-05-25T06:22:06.649Z,5.70
2023-05-25T06:22:39.014Z,5.40
2023-05-25T06:23:14.193Z,5.13
2023-05-25T06:23:49.310Z,5.43
2023-05-25T06:24:21.736Z,5.10
2023-05-25T06:24:54.171Z,5.00
2023-05-25T06:25:29.162Z,5.37
2023-05-25T06:26:04.726Z,5.03
2023-05-25T06:26:37.764Z,5.30
2023-05-25T06:27:17.677Z,5.30
2023-05-25T06:27:50.241Z,5.20
2023-05-25T06:28:22.683Z,5.40
2023-05-25T06:28:58.201Z,5.00
2023-05-25T06:29:30.647Z,5.10
2023-05-25T06:30:03.913Z,5.80
2023-05-25T06:30:38.979Z,5.73
2023-05-25T06:31:12.688Z,4.80
2023-05-25T06:31:45.165Z,5.90
2023-05-25T06:32:20.690Z,5.50
2023-05-25T06:32:53.139Z,6.10
2023-05-25T06:33:26.192Z,5.40
2023-05-25T06:34:01.188Z,5.20
2023-05-25T06:34:34.478Z,5.40
2023-05-25T06:35:10.115Z,4.73
2023-05-25T06:35:46.842Z,5.50
2023-05-25T06:36:20.248Z,5.63
2023-05-25T06:36:52.681Z,6.07
2023-05-25T06:37:27.651Z,6.00
2023-05-25T06:38:00.072Z,6.30
2023-05-25T06:38:36.009Z,5.70
2023-05-25T06:39:08.382Z,5.93
2023-05-25T06:39:43.215Z,5.60
2023-05-25T06:40:19.424Z,5.43
2023-05-25T06:40:51.960Z,5.70
2023-05-25T06:41:24.395Z,5.40
2023-05-25T06:41:59.374Z,5.40
2023-05-25T06:42:38.053Z,5.50
2023-05-25T06:43:13.130Z,5.50
2023-05-25T06:44:11.302Z,5.43
2023-05-25T06:44:51.179Z,5.83
2023-05-25T06:45:26.192Z,5.87
2023-05-25T06:45:58.687Z,5.30
2023-05-25T06:46:32.038Z,6.00
2023-05-25T06:47:08.111Z,5.60
2023-05-25T06:47:40.548Z,5.63
2023-05-25T06:48:15.247Z,5.87
2023-05-25T06:48:50.449Z,5.77
2023-05-25T06:49:22.818Z,5.23
2023-05-25T06:49:58.656Z,5.47
2023-05-25T06:50:31.087Z,5.80
2023-05-25T06:51:06.360Z,5.13
2023-05-25T06:51:38.779Z,6.57
2023-05-25T06:52:13.753Z,5.40
2023-05-25T06:52:47.029Z,6.17
2023-05-25T06:53:22.014Z,5.90
2023-05-25T06:53:55.330Z,5.87
2023-05-25T06:54:27.872Z,6.40
2023-05-25T06:55:04.144Z,5.90
2023-05-25T06:55:36.510Z,5.80
2023-05-25T06:56:08.861Z,5.80
2023-05-25T06:56:43.959Z,5.33
2023-05-25T06:57:16.350Z,5.57
2023-05-25T06:57:51.520Z,6.03
2023-05-25T06:58:27.581Z,5.63
2023-05-25T06:58:59.936Z,5.17
2023-05-25T06:59:34.896Z,5.20
2023-05-25T07:00:11.831Z,6.07
2023-05-25T07:00:46.980Z,6.20
2023-05-25T07:01:19.537Z,5.37
2023-05-25T07:01:56.455Z,6.37
2023-05-25T07:02:28.920Z,5.87
2023-05-25T07:03:01.802Z,6.00
2023-05-25T07:03:36.800Z,5.47
2023-05-25T07:04:09.198Z,6.00
2023-05-25T07:04:44.195Z,6.10
2023-05-25T07:05:16.814Z,6.10
2023-05-25T07:05:51.941Z,6.37
2023-05-25T07:06:24.449Z,6.60
2023-05-25T07:06:56.832Z,5.73
2023-05-25T07:07:31.773Z,6.30
2023-05-25T07:08:04.270Z,5.53
2023-05-25T07:08:36.830Z,6.30
2023-05-25T07:09:11.944Z,5.13
2023-05-25T07:09:44.315Z,6.43
2023-05-25T07:10:19.376Z,6.67
2023-05-25T07:10:51.742Z,6.00
2023-05-25T07:11:26.796Z,6.30
2023-05-25T07:11:59.378Z,5.80
2023-05-25T07:12:31.900Z,5.27
2023-05-25T07:13:09.473Z,5.70
2023-05-25T07:13:42.106Z,6.03
2023-05-25T07:14:17.061Z,6.33
2023-05-25T07:14:49.527Z,6.43
2023-05-25T07:15:24.581Z,6.50
2023-05-25T07:15:56.966Z,6.17
2023-05-25T07:16:29.378Z,6.87
2023-05-25T07:17:04.392Z,5.83
2023-05-25T07:17:36.907Z,6.03
2023-05-25T07:18:12.755Z,6.60
2023-05-25T07:18:48.070Z,5.70
2023-05-25T07:19:20.439Z,5.50
2023-05-25T07:19:52.965Z,6.70
2023-05-25T07:20:28.062Z,6.40
2023-05-25T07:21:00.457Z,6.30
2023-05-25T07:21:36.779Z,6.67
2023-05-25T07:22:10.012Z,7.03
2023-05-25T07:22:45.339Z,6.77
2023-05-25T07:23:17.674Z,6.10
2023-05-25T07:23:50.103Z,6.10
2023-05-25T07:24:25.108Z,5.97
2023-05-25T07:24:57.491Z,6.90
2023-05-25T07:25:29.843Z,6.20
2023-05-25T07:26:06.084Z,6.20
2023-05-25T07:26:38.742Z,5.73
2023-05-25T07:27:11.105Z,6.97
2023-05-25T07:27:46.110Z,6.53
2023-05-25T07:28:21.120Z,6.67
2023-05-25T07:28:56.098Z,6.10
2023-05-25T07:29:28.516Z,5.87
2023-05-25T07:30:00.962Z,5.83
2023-05-25T07:30:36.053Z,6.23
2023-05-25T07:31:09.053Z,6.87
2023-05-25T07:31:44.049Z,6.40
2023-05-25T07:32:16.503Z,5.50
2023-05-25T07:32:51.510Z,6.40
2023-05-25T07:33:23.915Z,5.90
2023-05-25T07:33:56.439Z,6.30
2023-05-25T07:34:31.431Z,5.90
2023-05-25T07:35:04.455Z,7.10
2023-05-25T07:35:39.431Z,6.00
2023-05-25T07:36:11.840Z,6.27
2023-05-25T07:36:44.251Z,6.47
2023-05-25T07:37:19.202Z,6.17
2023-05-25T07:37:57.384Z,5.97
2023-05-25T07:38:32.361Z,5.93
2023-05-25T07:39:04.780Z,6.73
2023-05-25T07:39:40.725Z,6.30
2023-05-25T07:40:13.566Z,5.93
2023-05-25T07:40:47.580Z,6.67
2023-05-25T07:41:22.666Z,6.10
2023-05-25T07:41:55.218Z,6.00